Eagle — WBP2187 — position and weather

sailwx.info

Track history (hours):
 
Tides and Currents Weather Stations Pressure Air Temp Water Temp Dewpoint Dewpoint Depression Visibility Wind Speed Wind Dir Waves Ship Positions

Eagle

Owner: Harley Marine Services, INC, SEATTLE, WA. More information available from US FCC via Universal Licensing System and Coast Guard Vessel Documentation Center.

Last reported at 2016-Sep-30 10:31 UTC. Time now 2016-Oct-01 01:33 UTC.
Position N 48°48' W 122°45'.

Length 32 m; draft 4 m.

Type: Tow > 200 m length. MMSI: 366978690.

Date/timePositionNaut miles runAvg speedWind from/ knotsBaromVisibWave heightAir tempDewpointWater temp
2016-Sep-30 10:31N 48°48' W 122°45'13 6.7
2016-Sep-30 08:33N 48°35' W 122°45'14 6.7
2016-Sep-30 06:30N 48°21' W 122°45'22 7.3
2016-Sep-30 03:27N 47°60' W 122°36'9 9.7
2016-Sep-30 02:33N 47°53' W 122°28'19 6.2
2016-Sep-29 23:31N 47°34' W 122°21'0 0.0
2016-Sep-29 21:32N 47°34' W 122°21'0 0.0
2016-Sep-29 20:31N 47°34' W 122°21'0 0.0
2016-Sep-29 19:32N 47°34' W 122°21'0 0.0
2016-Sep-29 16:31N 47°34' W 122°21'0 0.0
2016-Sep-29 15:31N 47°34' W 122°21'0 0.0
2016-Sep-29 14:28N 47°34' W 122°21'1 0.9
2016-Sep-29 13:30N 47°35' W 122°21'1 0.2
2016-Sep-29 08:33N 47°34' W 122°21'0 0.0
2016-Sep-29 07:33N 47°34' W 122°21'18 0.5
2016-Sep-27 19:11N 47°17' W 122°23'0 0.0
2016-Sep-27 10:17N 47°17' W 122°23'10 0.5
2016-Sep-26 15:33N 47°26' W 122°25'10 5.0
2016-Sep-26 13:33N 47°36' W 122°28'10 4.8
2016-Sep-26 11:33N 47°46' W 122°27'17 5.7
2016-Sep-26 08:33N 48°01' W 122°38'39 6.6
2016-Sep-26 02:33N 48°40' W 122°44'7 7.0
2016-Sep-26 01:33N 48°47' W 122°45'3 0.2
2016-Sep-25 15:15N 48°50' W 122°43'2 0.6
2016-Sep-25 12:32N 48°48' W 122°44'2 2.4
2016-Sep-25 11:32N 48°46' W 122°45'5 4.8
2016-Sep-25 10:33N 48°41' W 122°43'7 6.6
2016-Sep-25 09:33N 48°35' W 122°45'16 8.0
2016-Sep-25 07:33N 48°19' W 122°46'23 7.8
2016-Sep-25 04:33N 47°57' W 122°33'24 6.1
2016-Sep-25 00:32N 47°34' W 122°21'0 0.0
2016-Sep-24 22:32N 47°34' W 122°21'0 0.0
2016-Sep-24 21:32N 47°34' W 122°21'0 0.0
2016-Sep-24 19:32N 47°34' W 122°21'0 0.0
2016-Sep-24 18:32N 47°34' W 122°21'0 0.0
2016-Sep-24 17:32N 47°34' W 122°21'0 0.0
2016-Sep-24 16:32N 47°34' W 122°21'1 0.4
2016-Sep-24 14:34N 47°35' W 122°21'1 0.4
2016-Sep-24 12:31N 47°34' W 122°21'0 0.0
2016-Sep-24 10:31N 47°34' W 122°21'0 0.0
2016-Sep-24 09:32N 47°34' W 122°21'0 0.0
2016-Sep-24 03:28N 47°34' W 122°21'0 0.0
2016-Sep-24 02:32N 47°34' W 122°21'0 0.0
2016-Sep-24 01:31N 47°34' W 122°21'0 0.0
2016-Sep-24 00:31N 47°34' W 122°21'0 0.0
2016-Sep-23 19:31N 47°34' W 122°21'0 0.0
2016-Sep-23 17:33N 47°34' W 122°21'0 0.0
2016-Sep-23 16:33N 47°34' W 122°21'0 0.0
2016-Sep-23 15:33N 47°34' W 122°21'0 0.0
2016-Sep-23 13:33N 47°34' W 122°21'0 0.0
2016-Sep-23 09:33N 47°34' W 122°21'0 0.0
2016-Sep-23 06:33N 47°34' W 122°21'0 0.0
2016-Sep-23 04:33N 47°34' W 122°21'0 0.0
2016-Sep-23 03:33N 47°34' W 122°21'0 0.0
2016-Sep-23 02:33N 47°34' W 122°21'0 0.3
2016-Sep-23 01:33N 47°35' W 122°21'0 0.0
2016-Sep-23 00:31N 47°35' W 122°21'3 3.4
2016-Sep-22 23:33N 47°35' W 122°25'19 6.2
2016-Sep-22 20:33N 47°16' W 122°24'0 0.0
2016-Sep-22 04:05N 47°16' W 122°24'0 0.1
2016-Sep-22 03:24N 47°16' W 122°24'1 0.3
2016-Sep-22 00:30N 47°17' W 122°25'1 0.8
2016-Sep-21 23:33N 47°17' W 122°26'0 0.1
2016-Sep-21 16:31N 47°17' W 122°25'  
Track history (hours):
 
Tides and Currents Weather Stations Pressure Air Temp Water Temp Dewpoint Dewpoint Depression Visibility Wind Speed Wind Dir Waves Ship Positions

Eagle

Owner: Harley Marine Services, INC, SEATTLE, WA. More information available from US FCC via Universal Licensing System and Coast Guard Vessel Documentation Center.

Last reported at 2016-Sep-30 10:31 UTC. Time now 2016-Oct-01 01:33 UTC.
Position N 48°48' W 122°45'.

Length 32 m; draft 4 m.

Type: Tow > 200 m length. MMSI: 366978690.

Date/timePositionNaut miles runAvg speedWind from/ knotsBaromVisibWave heightAir tempDewpointWater temp
2016-Sep-30 10:31N 48°48' W 122°45'13 6.7
2016-Sep-30 08:33N 48°35' W 122°45'14 6.7
2016-Sep-30 06:30N 48°21' W 122°45'22 7.3
2016-Sep-30 03:27N 47°60' W 122°36'9 9.7
2016-Sep-30 02:33N 47°53' W 122°28'19 6.2
2016-Sep-29 23:31N 47°34' W 122°21'0 0.0
2016-Sep-29 21:32N 47°34' W 122°21'0 0.0
2016-Sep-29 20:31N 47°34' W 122°21'0 0.0
2016-Sep-29 19:32N 47°34' W 122°21'0 0.0
2016-Sep-29 16:31N 47°34' W 122°21'0 0.0
2016-Sep-29 15:31N 47°34' W 122°21'0 0.0
2016-Sep-29 14:28N 47°34' W 122°21'1 0.9
2016-Sep-29 13:30N 47°35' W 122°21'1 0.2
2016-Sep-29 08:33N 47°34' W 122°21'0 0.0
2016-Sep-29 07:33N 47°34' W 122°21'18 0.5
2016-Sep-27 19:11N 47°17' W 122°23'0 0.0
2016-Sep-27 10:17N 47°17' W 122°23'10 0.5
2016-Sep-26 15:33N 47°26' W 122°25'10 5.0
2016-Sep-26 13:33N 47°36' W 122°28'10 4.8
2016-Sep-26 11:33N 47°46' W 122°27'17 5.7
2016-Sep-26 08:33N 48°01' W 122°38'39 6.6
2016-Sep-26 02:33N 48°40' W 122°44'7 7.0
2016-Sep-26 01:33N 48°47' W 122°45'3 0.2
2016-Sep-25 15:15N 48°50' W 122°43'2 0.6
2016-Sep-25 12:32N 48°48' W 122°44'2 2.4
2016-Sep-25 11:32N 48°46' W 122°45'5 4.8
2016-Sep-25 10:33N 48°41' W 122°43'7 6.6
2016-Sep-25 09:33N 48°35' W 122°45'16 8.0
2016-Sep-25 07:33N 48°19' W 122°46'23 7.8
2016-Sep-25 04:33N 47°57' W 122°33'24 6.1
2016-Sep-25 00:32N 47°34' W 122°21'0 0.0
2016-Sep-24 22:32N 47°34' W 122°21'0 0.0
2016-Sep-24 21:32N 47°34' W 122°21'0 0.0
2016-Sep-24 19:32N 47°34' W 122°21'0 0.0
2016-Sep-24 18:32N 47°34' W 122°21'0 0.0
2016-Sep-24 17:32N 47°34' W 122°21'0 0.0
2016-Sep-24 16:32N 47°34' W 122°21'1 0.4
2016-Sep-24 14:34N 47°35' W 122°21'1 0.4
2016-Sep-24 12:31N 47°34' W 122°21'0 0.0
2016-Sep-24 10:31N 47°34' W 122°21'0 0.0
2016-Sep-24 09:32N 47°34' W 122°21'0 0.0
2016-Sep-24 03:28N 47°34' W 122°21'0 0.0
2016-Sep-24 02:32N 47°34' W 122°21'0 0.0
2016-Sep-24 01:31N 47°34' W 122°21'0 0.0
2016-Sep-24 00:31N 47°34' W 122°21'0 0.0
2016-Sep-23 19:31N 47°34' W 122°21'0 0.0
2016-Sep-23 17:33N 47°34' W 122°21'0 0.0
2016-Sep-23 16:33N 47°34' W 122°21'0 0.0
2016-Sep-23 15:33N 47°34' W 122°21'0 0.0
2016-Sep-23 13:33N 47°34' W 122°21'0 0.0
2016-Sep-23 09:33N 47°34' W 122°21'0 0.0
2016-Sep-23 06:33N 47°34' W 122°21'0 0.0
2016-Sep-23 04:33N 47°34' W 122°21'0 0.0
2016-Sep-23 03:33N 47°34' W 122°21'0 0.0
2016-Sep-23 02:33N 47°34' W 122°21'0 0.3
2016-Sep-23 01:33N 47°35' W 122°21'0 0.0
2016-Sep-23 00:31N 47°35' W 122°21'3 3.4
2016-Sep-22 23:33N 47°35' W 122°25'19 6.2
2016-Sep-22 20:33N 47°16' W 122°24'0 0.0
2016-Sep-22 04:05N 47°16' W 122°24'0 0.1
2016-Sep-22 03:24N 47°16' W 122°24'1 0.3
2016-Sep-22 00:30N 47°17' W 122°25'1 0.8
2016-Sep-21 23:33N 47°17' W 122°26'0 0.1
2016-Sep-21 16:31N 47°17' W 122°25'  

Dump ship's entire track history